createdAt,value
2023-03-08T00:01:27.891Z,0.70
2023-03-08T00:03:59.210Z,0.68
2023-03-08T00:08:56.933Z,1.08
2023-03-08T00:11:25.685Z,0.80
2023-03-08T00:13:55.137Z,0.85
2023-03-08T00:16:23.342Z,1.38
2023-03-08T00:18:51.437Z,0.80
2023-03-08T00:21:20.923Z,0.73
2023-03-08T00:23:49.572Z,0.82
2023-03-08T00:26:17.776Z,1.42
2023-03-08T00:28:47.116Z,1.50
2023-03-08T00:31:15.484Z,0.80
2023-03-08T00:33:43.769Z,1.40
2023-03-08T00:36:15.838Z,1.77
2023-03-08T00:38:45.825Z,0.77
2023-03-08T00:41:14.006Z,0.50
2023-03-08T00:43:42.453Z,0.52
2023-03-08T00:46:11.233Z,0.70
2023-03-08T00:48:39.417Z,0.70
2023-03-08T00:51:07.887Z,0.98
2023-03-08T00:53:36.125Z,0.90
2023-03-08T00:56:06.239Z,0.47
2023-03-08T00:58:34.360Z,0.65
2023-03-08T01:01:02.772Z,0.60
2023-03-08T01:03:31.100Z,0.52
2023-03-08T01:06:00.642Z,0.40
2023-03-08T01:08:28.787Z,0.80
2023-03-08T01:10:59.311Z,0.35
2023-03-08T01:13:31.123Z,0.57
2023-03-08T01:16:00.030Z,0.77
2023-03-08T01:18:28.553Z,0.45
2023-03-08T01:20:58.256Z,0.40
2023-03-08T01:23:26.845Z,0.68
2023-03-08T01:26:01.393Z,0.68
2023-03-08T01:28:30.894Z,0.20
2023-03-08T01:31:03.447Z,0.60
2023-03-08T01:33:31.566Z,1.25
2023-03-08T01:35:59.803Z,0.68
2023-03-08T01:38:27.950Z,0.52
2023-03-08T01:41:00.270Z,1.75
2023-03-08T01:43:32.561Z,0.40
2023-03-08T01:46:18.755Z,0.40
2023-03-08T01:48:52.140Z,0.47
2023-03-08T01:51:23.726Z,0.57
2023-03-08T01:53:53.817Z,0.50
2023-03-08T01:56:23.128Z,0.52
2023-03-08T01:58:53.839Z,1.55
2023-03-08T02:01:22.123Z,1.20
2023-03-08T02:03:50.246Z,1.30
2023-03-08T02:06:20.590Z,1.30
2023-03-08T02:08:49.399Z,0.90
2023-03-08T02:11:20.133Z,0.90
2023-03-08T02:13:49.635Z,0.60
2023-03-08T02:16:20.031Z,0.80
2023-03-08T02:18:57.453Z,0.50
2023-03-08T02:21:26.072Z,0.50
2023-03-08T02:23:55.753Z,0.77
2023-03-08T02:26:24.662Z,0.50
2023-03-08T02:28:52.705Z,0.68
2023-03-08T02:31:20.857Z,0.50
2023-03-08T02:33:48.945Z,0.40
2023-03-08T02:36:17.096Z,0.57
2023-03-08T02:38:45.186Z,0.40
2023-03-08T02:41:14.722Z,0.40
2023-03-08T02:43:42.869Z,0.45
2023-03-08T02:46:12.586Z,0.50
2023-03-08T02:48:40.691Z,0.35
2023-03-08T02:51:08.738Z,0.90
2023-03-08T02:53:36.855Z,0.50
2023-03-08T02:56:05.229Z,0.52
2023-03-08T02:58:34.839Z,0.50
2023-03-08T03:01:03.023Z,0.60
2023-03-08T03:03:31.503Z,0.30
2023-03-08T03:05:59.725Z,0.68
2023-03-08T03:08:27.823Z,0.55
2023-03-08T03:10:55.911Z,0.65
2023-03-08T03:13:24.013Z,0.22
2023-03-08T03:15:53.466Z,0.32
2023-03-08T03:18:21.659Z,0.45
2023-03-08T03:20:49.887Z,0.43
2023-03-08T03:23:18.019Z,0.43
2023-03-08T03:25:46.653Z,0.38
2023-03-08T03:28:15.000Z,0.28
2023-03-08T03:30:43.125Z,0.45
2023-03-08T03:33:12.760Z,0.40
2023-03-08T03:35:41.149Z,0.40
2023-03-08T03:38:09.294Z,0.50
2023-03-08T03:40:37.446Z,0.47
2023-03-08T03:43:05.660Z,0.35
2023-03-08T03:45:33.752Z,0.60
2023-03-08T03:48:01.900Z,0.38
2023-03-08T03:50:31.439Z,0.47
2023-03-08T03:52:59.620Z,0.63
2023-03-08T03:55:27.766Z,0.40
2023-03-08T03:57:56.466Z,0.95
2023-03-08T04:00:24.518Z,0.80
2023-03-08T04:02:52.680Z,0.73
2023-03-08T04:05:20.810Z,0.60
2023-03-08T04:07:50.747Z,0.32
2023-03-08T04:10:19.061Z,0.40
2023-03-08T04:12:49.697Z,0.35
2023-03-08T04:15:17.933Z,0.38
2023-03-08T04:17:46.300Z,0.43
2023-03-08T04:20:15.377Z,0.70
2023-03-08T04:22:43.519Z,0.82
2023-03-08T04:25:13.018Z,0.30
2023-03-08T04:27:41.071Z,0.65
2023-03-08T04:30:10.518Z,0.75
2023-03-08T04:32:38.914Z,0.68
2023-03-08T04:35:07.609Z,0.90
2023-03-08T04:37:37.130Z,0.40
2023-03-08T04:40:09.440Z,0.65
2023-03-08T04:42:40.913Z,0.40
2023-03-08T04:47:37.501Z,0.50
2023-03-08T04:50:06.229Z,0.50
2023-03-08T04:52:34.292Z,0.55
2023-03-08T04:55:02.358Z,0.20
2023-03-08T04:57:30.446Z,0.52
2023-03-08T04:59:59.983Z,0.30
2023-03-08T05:02:28.193Z,0.30
2023-03-08T05:04:56.309Z,0.45
2023-03-08T05:07:24.500Z,0.50
2023-03-08T05:09:52.628Z,0.20
2023-03-08T05:12:20.739Z,0.30
2023-03-08T05:14:48.842Z,0.50
2023-03-08T05:17:18.287Z,0.30
2023-03-08T05:19:46.451Z,0.47
2023-03-08T05:22:14.629Z,0.50
2023-03-08T05:24:42.742Z,0.80
2023-03-08T05:27:10.958Z,1.25
2023-03-08T05:29:39.042Z,0.93
2023-03-08T05:32:07.736Z,0.55
2023-03-08T05:34:37.196Z,0.50
2023-03-08T05:37:05.258Z,1.00
2023-03-08T05:39:33.439Z,0.30
2023-03-08T05:42:01.589Z,1.00
2023-03-08T05:44:30.596Z,0.95
2023-03-08T05:46:58.745Z,0.40
2023-03-08T05:49:26.804Z,0.50
2023-03-08T05:51:56.226Z,0.73
2023-03-08T05:54:24.509Z,0.55
2023-03-08T05:56:54.737Z,0.63
2023-03-08T05:59:22.889Z,0.65
2023-03-08T06:01:51.187Z,0.85
2023-03-08T06:04:19.406Z,0.70
2023-03-08T06:06:47.551Z,0.70
2023-03-08T06:09:17.039Z,0.93
2023-03-08T06:11:45.151Z,0.43
2023-03-08T06:14:13.505Z,0.50
2023-03-08T06:16:41.669Z,0.90
2023-03-08T06:19:09.802Z,0.80
2023-03-08T06:21:37.883Z,0.73
2023-03-08T06:24:06.310Z,1.33
2023-03-08T06:26:35.850Z,0.70
2023-03-08T06:29:04.151Z,0.88
2023-03-08T06:31:32.241Z,0.57
2023-03-08T06:34:00.273Z,0.98
2023-03-08T06:36:28.446Z,0.60
2023-03-08T06:38:56.592Z,0.63
2023-03-08T06:41:24.832Z,0.63
2023-03-08T06:43:54.392Z,0.57
2023-03-08T06:46:22.596Z,0.77
2023-03-08T06:48:50.960Z,0.70
2023-03-08T06:51:22.089Z,1.48
2023-03-08T06:53:50.362Z,0.75
2023-03-08T06:56:19.806Z,0.70
2023-03-08T06:58:48.077Z,1.08
2023-03-08T07:01:17.819Z,0.60
2023-03-08T07:03:48.139Z,0.73
2023-03-08T07:06:16.803Z,0.80
2023-03-08T07:08:45.068Z,0.75
2023-03-08T07:11:13.106Z,0.55
2023-03-08T07:13:41.613Z,0.57
2023-03-08T07:16:11.931Z,0.50
2023-03-08T07:18:42.308Z,0.90
2023-03-08T07:21:11.376Z,0.93
2023-03-08T07:23:39.594Z,0.82
2023-03-08T07:26:08.670Z,0.60
2023-03-08T07:28:37.362Z,0.85
2023-03-08T07:31:06.257Z,4.05
2023-03-08T07:33:34.483Z,0.90
2023-03-08T07:36:04.300Z,1.05
2023-03-08T07:38:32.417Z,1.05
2023-03-08T07:41:00.502Z,1.00
2023-03-08T07:43:28.614Z,1.10
2023-03-08T07:45:56.825Z,1.05
2023-03-08T07:48:24.946Z,0.95
2023-03-08T07:50:53.106Z,0.88
2023-03-08T07:53:22.648Z,1.05
2023-03-08T07:55:50.856Z,0.95
2023-03-08T07:58:18.952Z,0.90
2023-03-08T08:00:47.035Z,1.13
2023-03-08T08:03:15.202Z,0.80
2023-03-08T08:05:43.378Z,1.35
2023-03-08T08:08:13.936Z,0.90
2023-03-08T08:10:44.576Z,1.20
2023-03-08T08:13:12.777Z,0.43
2023-03-08T08:15:41.050Z,1.05
2023-03-08T08:18:09.337Z,1.40
2023-03-08T08:20:38.076Z,1.05
2023-03-08T08:23:06.961Z,0.80
2023-03-08T08:25:35.118Z,1.25
2023-03-08T08:28:04.669Z,1.25
2023-03-08T08:30:32.780Z,0.63
2023-03-08T08:33:01.327Z,0.52
2023-03-08T08:35:42.448Z,0.88
2023-03-08T08:40:38.994Z,0.82
2023-03-08T08:43:08.487Z,0.50
2023-03-08T08:45:36.680Z,1.10
2023-03-08T08:48:06.006Z,0.95
2023-03-08T08:50:34.165Z,1.23
2023-03-08T08:53:02.381Z,1.27
2023-03-08T08:55:30.660Z,1.35
2023-03-08T08:57:58.755Z,1.02
2023-03-08T09:00:28.304Z,1.30
2023-03-08T09:02:56.397Z,1.58
2023-03-08T09:05:24.515Z,1.02
2023-03-08T09:07:55.103Z,0.98
2023-03-08T09:10:23.363Z,0.83
2023-03-08T09:12:51.474Z,1.10
2023-03-08T09:15:19.845Z,1.02
2023-03-08T09:17:49.473Z,1.02
2023-03-08T09:20:18.417Z,0.77
2023-03-08T09:22:46.575Z,0.80
2023-03-08T09:25:14.935Z,1.50
2023-03-08T09:27:43.885Z,1.20
2023-03-08T09:30:14.187Z,0.93
2023-03-08T09:32:42.689Z,1.35
2023-03-08T09:35:12.303Z,1.25
2023-03-08T09:37:40.350Z,0.90
2023-03-08T09:40:15.371Z,1.20
2023-03-08T09:42:45.832Z,1.50
2023-03-08T09:45:24.566Z,1.73
2023-03-08T09:48:04.824Z,0.80
2023-03-08T09:50:41.284Z,0.93
2023-03-08T09:53:19.496Z,0.90
2023-03-08T09:55:51.144Z,0.80
2023-03-08T09:58:28.614Z,2.00
2023-03-08T10:01:04.884Z,1.00
2023-03-08T10:03:55.780Z,1.05
2023-03-08T10:06:33.952Z,0.77
2023-03-08T10:09:08.648Z,0.63
2023-03-08T10:11:45.633Z,0.75
2023-03-08T10:14:20.700Z,0.90
2023-03-08T10:16:53.970Z,1.15
2023-03-08T10:19:26.146Z,1.02
2023-03-08T10:21:58.397Z,3.13
2023-03-08T10:24:33.445Z,2.05
2023-03-08T10:27:11.038Z,2.85
2023-03-08T10:29:39.208Z,3.15
2023-03-08T10:32:08.018Z,3.53
2023-03-08T10:34:36.310Z,4.50
2023-03-08T10:37:07.915Z,4.32
2023-03-08T10:39:37.634Z,3.80
2023-03-08T10:42:15.573Z,4.40
2023-03-08T10:44:48.348Z,4.47
2023-03-08T10:47:21.419Z,3.55
2023-03-08T10:49:49.594Z,3.03
2023-03-08T10:52:26.981Z,4.18
2023-03-08T10:55:07.900Z,3.83
2023-03-08T10:57:36.198Z,4.82
2023-03-08T11:00:13.727Z,4.90
2023-03-08T11:02:41.876Z,5.30
2023-03-08T11:05:21.206Z,4.60
2023-03-08T11:07:54.804Z,4.90
2023-03-08T11:10:26.225Z,5.28
2023-03-08T11:15:34.114Z,6.95
2023-03-08T11:18:13.380Z,3.55
2023-03-08T11:20:46.075Z,4.95
2023-03-08T11:23:22.887Z,5.30
2023-03-08T11:25:57.280Z,5.28
2023-03-08T11:28:42.091Z,4.57
2023-03-08T11:31:19.192Z,4.63
2023-03-08T11:34:01.827Z,4.00
2023-03-08T11:36:36.318Z,3.40
2023-03-08T11:39:18.747Z,4.32
2023-03-08T11:41:56.764Z,4.65
2023-03-08T11:44:41.870Z,4.78
2023-03-08T11:47:53.601Z,3.55
2023-03-08T11:50:24.533Z,3.75
2023-03-08T11:53:03.666Z,3.63
2023-03-08T11:55:54.565Z,4.00
2023-03-08T11:58:29.987Z,4.47
2023-03-08T12:01:02.638Z,3.97
2023-03-08T12:03:35.242Z,4.00
2023-03-08T12:06:22.698Z,4.63
2023-03-08T12:08:59.604Z,4.43
2023-03-08T12:14:06.683Z,4.63
2023-03-08T12:16:43.053Z,3.58
2023-03-08T12:19:20.879Z,3.58
2023-03-08T12:21:52.942Z,4.28
2023-03-08T12:24:35.410Z,5.22
2023-03-08T12:27:09.932Z,6.03
2023-03-08T12:29:44.099Z,4.32
2023-03-08T12:32:16.467Z,5.80
2023-03-08T12:34:47.007Z,4.65
2023-03-08T12:37:23.194Z,4.03
2023-03-08T12:40:00.510Z,4.15
2023-03-08T12:42:37.112Z,4.35
2023-03-08T12:45:11.264Z,3.67
2023-03-08T12:47:40.153Z,3.63
2023-03-08T12:50:12.124Z,2.85
2023-03-08T12:52:42.136Z,2.92
2023-03-08T12:55:22.085Z,2.40
2023-03-08T12:57:54.138Z,2.45
2023-03-08T13:00:31.959Z,2.10
2023-03-08T13:03:02.325Z,2.47
2023-03-08T13:05:33.039Z,2.53
2023-03-08T13:08:31.645Z,2.08
2023-03-08T13:11:08.327Z,2.45
2023-03-08T13:13:56.147Z,2.15
2023-03-08T13:16:34.040Z,1.73
2023-03-08T13:19:19.393Z,2.60
2023-03-08T13:21:55.247Z,1.70
2023-03-08T13:24:34.544Z,2.35
2023-03-08T13:27:17.877Z,1.90
2023-03-08T13:29:49.093Z,1.80
2023-03-08T13:32:19.412Z,1.92
2023-03-08T13:34:59.330Z,2.47
2023-03-08T13:37:30.297Z,3.00
2023-03-08T13:40:00.549Z,2.20
2023-03-08T13:42:30.461Z,2.20
2023-03-08T13:45:10.853Z,2.55
2023-03-08T13:47:41.090Z,2.15
2023-03-08T13:50:18.037Z,2.38
2023-03-08T13:52:46.500Z,2.95
2023-03-08T13:55:20.662Z,2.20
2023-03-08T13:57:52.332Z,2.40
2023-03-08T14:00:31.643Z,2.83
2023-03-08T14:03:00.944Z,3.25
2023-03-08T14:05:31.500Z,2.40
2023-03-08T14:08:03.159Z,3.53
2023-03-08T14:10:38.836Z,2.80
2023-03-08T14:13:15.883Z,3.50
2023-03-08T14:15:50.704Z,2.63
2023-03-08T14:18:23.254Z,3.78
2023-03-08T14:21:02.439Z,3.88
2023-03-08T14:23:30.873Z,2.92
2023-03-08T14:25:59.736Z,2.83
2023-03-08T14:28:42.433Z,2.97
2023-03-08T14:31:27.109Z,2.58
2023-03-08T14:34:00.116Z,3.22
2023-03-08T14:36:30.441Z,3.38
2023-03-08T14:39:00.134Z,2.95
2023-03-08T14:41:33.293Z,2.45
2023-03-08T14:44:02.121Z,2.75
2023-03-08T14:46:33.019Z,2.97
2023-03-08T14:49:03.101Z,2.58
2023-03-08T14:51:37.907Z,3.35
2023-03-08T14:54:08.504Z,3.00
2023-03-08T14:56:36.647Z,2.67
2023-03-08T14:59:06.109Z,3.80
2023-03-08T15:01:37.531Z,3.45
2023-03-08T15:06:37.206Z,2.90
2023-03-08T15:09:09.072Z,3.17
2023-03-08T15:11:37.635Z,2.38
2023-03-08T15:14:06.237Z,2.83
2023-03-08T15:16:35.850Z,2.67
2023-03-08T15:19:04.111Z,2.80
2023-03-08T15:21:32.923Z,3.08
2023-03-08T15:24:02.991Z,3.33
2023-03-08T15:26:32.693Z,3.45
2023-03-08T15:29:03.606Z,2.67
2023-03-08T15:31:32.530Z,2.58
2023-03-08T15:34:01.982Z,3.15
2023-03-08T15:36:34.857Z,2.80
2023-03-08T15:39:04.777Z,2.75
2023-03-08T15:41:33.023Z,3.17
2023-03-08T15:44:01.248Z,3.05
2023-03-08T15:46:32.416Z,2.45
2023-03-08T15:49:02.041Z,2.97
2023-03-08T15:51:32.697Z,4.22
2023-03-08T15:54:01.269Z,1.90
2023-03-08T15:56:29.666Z,2.72
2023-03-08T15:58:58.023Z,3.92
2023-03-08T16:01:28.046Z,4.55
2023-03-08T16:03:57.598Z,3.03
2023-03-08T16:06:27.183Z,2.63
2023-03-08T16:08:55.409Z,4.13
2023-03-08T16:11:23.608Z,2.88
2023-03-08T16:13:53.310Z,3.35
2023-03-08T16:16:27.642Z,2.90
2023-03-08T16:19:00.429Z,2.88
2023-03-08T16:21:29.959Z,2.85
2023-03-08T16:23:59.608Z,2.78
2023-03-08T16:26:28.005Z,3.45
2023-03-08T16:28:56.078Z,3.40
2023-03-08T16:31:24.354Z,3.40
2023-03-08T16:33:52.586Z,4.22
2023-03-08T16:36:20.784Z,4.18
2023-03-08T16:38:50.331Z,4.00
2023-03-08T16:41:18.392Z,3.85
2023-03-08T16:43:48.432Z,4.18
2023-03-08T16:46:18.420Z,4.15
2023-03-08T16:48:49.364Z,3.47
2023-03-08T16:51:18.915Z,4.10
2023-03-08T16:53:47.197Z,4.70
2023-03-08T16:56:20.580Z,5.10
2023-03-08T16:58:48.962Z,4.90
2023-03-08T17:01:18.827Z,4.60
2023-03-08T17:03:47.429Z,4.78
2023-03-08T17:06:18.215Z,4.63
2023-03-08T17:08:46.414Z,4.68
2023-03-08T17:11:20.151Z,4.47
2023-03-08T17:13:51.217Z,4.10
2023-03-08T17:16:19.926Z,4.20
2023-03-08T17:18:49.064Z,3.42
2023-03-08T17:21:17.659Z,3.80
2023-03-08T17:23:46.098Z,4.45
2023-03-08T17:26:17.158Z,4.35
2023-03-08T17:28:47.221Z,4.75
2023-03-08T17:31:17.388Z,4.90
2023-03-08T17:33:45.987Z,5.70
2023-03-08T17:36:15.105Z,4.97
2023-03-08T17:38:43.914Z,4.55
2023-03-08T17:41:14.061Z,3.65
2023-03-08T17:43:42.564Z,5.00
2023-03-08T17:46:15.377Z,4.53
2023-03-08T17:48:44.200Z,4.85
2023-03-08T17:51:14.407Z,4.63
2023-03-08T17:53:43.117Z,5.20
2023-03-08T17:56:13.287Z,5.97
2023-03-08T17:58:42.135Z,6.05
2023-03-08T18:01:13.652Z,6.68
2023-03-08T18:06:20.068Z,6.25
2023-03-08T18:08:51.071Z,6.60
2023-03-08T18:11:19.177Z,6.68
2023-03-08T18:13:47.349Z,7.03
2023-03-08T18:16:17.537Z,6.40
2023-03-08T18:18:49.520Z,6.30
2023-03-08T18:21:18.113Z,5.90
2023-03-08T18:23:46.848Z,5.35
2023-03-08T18:26:17.829Z,5.18
2023-03-08T18:28:46.020Z,5.18
2023-03-08T18:31:18.546Z,5.30
2023-03-08T18:33:47.295Z,5.60
2023-03-08T18:36:15.465Z,5.32
2023-03-08T18:38:43.939Z,6.40
2023-03-08T18:41:13.528Z,6.38
2023-03-08T18:43:42.106Z,5.85
2023-03-08T18:46:12.166Z,6.47
2023-03-08T18:48:43.288Z,6.38
2023-03-08T18:51:11.526Z,6.57
2023-03-08T18:53:40.327Z,6.75
2023-03-08T18:56:09.130Z,5.53
2023-03-08T18:58:37.173Z,7.20
2023-03-08T19:01:11.621Z,8.32
2023-03-08T19:03:41.667Z,8.73
2023-03-08T19:06:10.306Z,7.88
2023-03-08T19:08:38.537Z,9.48
2023-03-08T19:11:14.072Z,10.50
2023-03-08T19:13:43.073Z,12.20
2023-03-08T19:16:19.425Z,8.98
2023-03-08T19:18:50.471Z,10.75
2023-03-08T19:21:21.203Z,9.02
2023-03-08T19:23:49.798Z,9.77
2023-03-08T19:26:37.028Z,8.07
2023-03-08T19:29:08.134Z,8.02
2023-03-08T19:31:38.565Z,9.98
2023-03-08T19:34:09.062Z,12.73
2023-03-08T19:36:38.431Z,14.30
2023-03-08T19:39:10.624Z,11.70
2023-03-08T19:41:38.905Z,10.02
2023-03-08T19:44:08.209Z,8.35
2023-03-08T19:46:37.039Z,10.15
2023-03-08T19:49:09.690Z,10.15
2023-03-08T19:51:38.179Z,9.63
2023-03-08T19:54:07.195Z,10.73
2023-03-08T19:56:35.509Z,9.52
2023-03-08T19:59:04.111Z,8.15
2023-03-08T20:01:33.067Z,7.53
2023-03-08T20:04:01.469Z,6.85
2023-03-08T20:06:33.133Z,7.80
2023-03-08T20:09:02.721Z,7.28
2023-03-08T20:11:31.527Z,6.82
2023-03-08T20:14:00.139Z,6.88
2023-03-08T20:16:28.746Z,6.65
2023-03-08T20:18:57.570Z,9.27
2023-03-08T20:21:27.977Z,7.25
2023-03-08T20:23:59.777Z,6.82
2023-03-08T20:26:31.209Z,6.40
2023-03-08T20:31:29.566Z,6.90
2023-03-08T20:33:58.298Z,8.65
2023-03-08T20:36:26.590Z,7.53
2023-03-08T20:38:55.266Z,7.55
2023-03-08T20:41:24.752Z,8.15
2023-03-08T20:43:55.550Z,7.93
2023-03-08T20:46:25.972Z,7.82
2023-03-08T20:48:54.876Z,8.45
2023-03-08T20:51:24.455Z,6.88
2023-03-08T20:53:54.701Z,7.65
2023-03-08T20:56:26.033Z,8.50
2023-03-08T20:58:55.334Z,8.45
2023-03-08T21:01:28.849Z,8.43
2023-03-08T21:03:57.061Z,9.23
2023-03-08T21:06:27.959Z,9.27
2023-03-08T21:08:56.287Z,8.70
2023-03-08T21:11:26.017Z,8.30
2023-03-08T21:13:55.530Z,7.50
2023-03-08T21:16:25.942Z,8.23
2023-03-08T21:18:55.688Z,7.18
2023-03-08T21:21:27.323Z,8.23
2023-03-08T21:23:56.326Z,9.80
2023-03-08T21:26:27.195Z,7.88
2023-03-08T21:28:57.372Z,9.07
2023-03-08T21:31:26.225Z,7.28
2023-03-08T21:33:55.176Z,6.28
2023-03-08T21:36:24.154Z,5.60
2023-03-08T21:38:53.536Z,6.47
2023-03-08T21:41:23.253Z,6.93
2023-03-08T21:43:53.092Z,6.43
2023-03-08T21:46:21.893Z,7.95
2023-03-08T21:48:50.022Z,8.20
2023-03-08T21:51:18.683Z,7.72
2023-03-08T21:53:46.801Z,7.05
2023-03-08T21:56:16.997Z,6.20
2023-03-08T21:58:45.930Z,7.03
2023-03-08T22:01:23.992Z,6.63
2023-03-08T22:03:52.774Z,7.68
2023-03-08T22:06:21.027Z,7.10
2023-03-08T22:08:49.857Z,7.18
2023-03-08T22:11:18.357Z,7.60
2023-03-08T22:13:50.279Z,7.05
2023-03-08T22:16:18.807Z,8.07
2023-03-08T22:18:49.106Z,6.85
2023-03-08T22:21:17.850Z,7.70
2023-03-08T22:23:46.413Z,6.45
2023-03-08T22:26:14.550Z,6.60
2023-03-08T22:28:42.749Z,6.60
2023-03-08T22:31:12.553Z,6.70
2023-03-08T22:33:41.554Z,7.35
2023-03-08T22:36:16.382Z,8.68
2023-03-08T22:38:44.889Z,8.00
2023-03-08T22:41:15.265Z,7.05
2023-03-08T22:43:44.414Z,7.72
2023-03-08T22:46:16.236Z,7.32
2023-03-08T22:48:45.605Z,7.45
2023-03-08T22:51:17.569Z,7.50
2023-03-08T22:53:45.681Z,7.28
2023-03-08T22:56:23.356Z,7.88
2023-03-08T22:58:51.942Z,7.13
2023-03-08T23:01:22.601Z,7.60
2023-03-08T23:03:51.696Z,8.05
2023-03-08T23:06:21.256Z,7.88
2023-03-08T23:08:49.429Z,7.95
2023-03-08T23:11:18.240Z,7.60
2023-03-08T23:13:46.563Z,8.90
2023-03-08T23:16:16.342Z,9.38
2023-03-08T23:18:45.171Z,9.25
2023-03-08T23:21:17.870Z,9.73
2023-03-08T23:23:48.047Z,8.88
2023-03-08T23:26:19.455Z,9.13
2023-03-08T23:31:19.934Z,8.15
2023-03-08T23:33:49.144Z,8.85
2023-03-08T23:36:19.586Z,8.30
2023-03-08T23:38:49.391Z,8.95
2023-03-08T23:41:18.516Z,9.80
2023-03-08T23:43:47.225Z,10.65
2023-03-08T23:46:18.587Z,11.40
2023-03-08T23:51:17.754Z,12.00
2023-03-08T23:53:45.999Z,10.80
2023-03-08T23:56:26.533Z,11.35
2023-03-08T23:58:56.257Z,9.57
